createdAt,value
2024-02-28T00:03:01.397Z,43
2024-02-28T00:14:01.636Z,43
2024-02-28T00:16:01.830Z,43
2024-02-28T00:24:00.833Z,43
2024-02-28T00:32:01.004Z,43
2024-02-28T01:12:01.703Z,42
2024-02-28T01:13:00.868Z,42
2024-02-28T01:14:01.091Z,42
2024-02-28T01:15:01.348Z,43
2024-02-28T01:16:01.546Z,43
2024-02-28T01:17:01.657Z,42
2024-02-28T01:18:01.772Z,42
2024-02-28T01:19:01.250Z,42
2024-02-28T01:20:01.594Z,42
2024-02-28T01:22:01.808Z,42
2024-02-28T01:23:01.026Z,42
2024-02-28T01:24:01.494Z,42
2024-02-28T01:25:01.010Z,42
2024-02-28T01:26:01.173Z,42
2024-02-28T01:27:01.334Z,42
2024-02-28T01:28:01.608Z,41
2024-02-28T01:29:00.949Z,41
2024-02-28T01:30:01.074Z,42
2024-02-28T01:31:01.637Z,41
2024-02-28T01:32:01.108Z,41
2024-02-28T01:33:01.341Z,42
2024-02-28T01:34:01.489Z,42
2024-02-28T03:05:01.195Z,42
2024-02-28T03:07:01.572Z,42
2024-02-28T03:22:01.838Z,42
2024-02-28T03:30:00.906Z,42
2024-02-28T03:31:01.268Z,44
2024-02-28T03:32:01.181Z,44
2024-02-28T03:33:01.638Z,42
2024-02-28T03:34:01.305Z,44
2024-02-28T03:35:01.509Z,42
2024-02-28T03:36:00.881Z,43
2024-02-28T03:37:01.087Z,43
2024-02-28T03:38:01.493Z,43
2024-02-28T03:39:01.756Z,43
2024-02-28T03:40:01.464Z,42
2024-02-28T04:02:01.057Z,45
2024-02-28T04:03:02.703Z,43
2024-02-28T04:04:01.872Z,44
2024-02-28T04:05:00.886Z,42
2024-02-28T04:06:01.167Z,41
2024-02-28T04:07:01.507Z,40
2024-02-28T04:08:00.872Z,41
2024-02-28T04:16:01.440Z,41
2024-02-28T04:18:01.388Z,42
2024-02-28T04:19:01.622Z,42
2024-02-28T04:25:01.827Z,42
2024-02-28T05:05:00.917Z,39
2024-02-28T05:06:01.527Z,39
2024-02-28T05:07:00.961Z,40
2024-02-28T05:08:01.090Z,40
2024-02-28T05:09:01.328Z,39
2024-02-28T05:10:01.025Z,39
2024-02-28T05:12:01.532Z,40
2024-02-28T05:13:01.838Z,40
2024-02-28T05:14:00.945Z,40
2024-02-28T05:15:01.079Z,39
2024-02-28T05:16:01.183Z,40
2024-02-28T05:17:01.281Z,40
2024-02-28T05:18:01.467Z,40
2024-02-28T05:19:01.290Z,39
2024-02-28T05:20:01.484Z,40
2024-02-28T05:21:01.703Z,39
2024-02-28T05:22:00.961Z,39
2024-02-28T05:23:01.353Z,40
2024-02-28T05:24:01.714Z,39
2024-02-28T05:25:00.982Z,39
2024-02-28T05:26:01.322Z,40
2024-02-28T05:27:01.225Z,40
2024-02-28T05:28:01.314Z,40
2024-02-28T05:29:00.896Z,40
2024-02-28T05:30:01.064Z,40
2024-02-28T05:31:01.262Z,39
2024-02-28T05:32:01.666Z,39
2024-02-28T05:33:01.787Z,40
2024-02-28T05:34:01.440Z,40
2024-02-28T05:35:00.845Z,40
2024-02-28T05:36:00.915Z,40
2024-02-28T05:37:01.387Z,40
2024-02-28T05:38:01.539Z,40
2024-02-28T05:40:01.074Z,40
2024-02-28T05:44:01.228Z,40
2024-02-28T05:49:01.535Z,40
2024-02-28T05:59:01.635Z,41
2024-02-28T06:01:01.853Z,40
2024-02-28T06:02:01.724Z,40
2024-02-28T06:04:01.131Z,40
2024-02-28T06:07:00.869Z,41
2024-02-28T06:16:01.446Z,41
2024-02-28T06:18:01.450Z,40
2024-02-28T06:20:01.449Z,40
2024-02-28T06:22:01.021Z,41
2024-02-28T06:23:07.613Z,41
2024-02-28T06:25:01.378Z,40
2024-02-28T06:27:01.371Z,40
2024-02-28T06:28:01.547Z,40
2024-02-28T06:29:01.141Z,40
2024-02-28T06:30:01.612Z,40
2024-02-28T06:32:01.562Z,40
2024-02-28T06:35:00.990Z,40
2024-02-28T06:37:01.691Z,40
2024-02-28T06:38:01.752Z,40
2024-02-28T06:39:01.229Z,40
2024-02-28T06:40:01.102Z,40
2024-02-28T06:41:01.287Z,40
2024-02-28T06:48:01.718Z,40
2024-02-28T06:51:01.667Z,40
2024-02-28T06:52:01.543Z,40
2024-02-28T06:53:01.637Z,40
2024-02-28T06:54:01.083Z,40
2024-02-28T06:55:01.340Z,40
2024-02-28T06:56:01.545Z,40
2024-02-28T06:57:01.641Z,40
2024-02-28T06:58:01.862Z,40
2024-02-28T06:59:01.234Z,40
2024-02-28T07:00:01.509Z,40
2024-02-28T07:01:02.720Z,40
2024-02-28T07:02:01.572Z,40
2024-02-28T07:03:01.273Z,40
2024-02-28T07:04:01.409Z,40
2024-02-28T07:05:01.212Z,40
2024-02-28T07:06:01.566Z,39
2024-02-28T07:07:01.009Z,40
2024-02-28T07:08:01.289Z,40
2024-02-28T07:09:01.750Z,39
2024-02-28T07:10:01.011Z,40
2024-02-28T07:11:01.210Z,40
2024-02-28T07:12:01.384Z,39
2024-02-28T07:13:01.676Z,39
2024-02-28T07:14:00.826Z,39
2024-02-28T07:15:01.080Z,39
2024-02-28T07:16:01.305Z,40
2024-02-28T07:17:01.486Z,40
2024-02-28T07:18:01.081Z,39
2024-02-28T07:19:01.292Z,39
2024-02-28T07:20:01.483Z,39
2024-02-28T07:21:01.606Z,39
2024-02-28T07:22:00.911Z,39
2024-02-28T07:23:01.130Z,39
2024-02-28T07:24:01.212Z,39
2024-02-28T07:25:01.473Z,39
2024-02-28T07:26:09.344Z,39
2024-02-28T07:28:01.682Z,39
2024-02-28T07:29:00.914Z,40
2024-02-28T07:30:01.009Z,40
2024-02-28T07:31:01.209Z,40
2024-02-28T07:32:01.402Z,40
2024-02-28T07:33:01.506Z,40
2024-02-28T07:34:01.638Z,40
2024-02-28T07:35:01.850Z,40
2024-02-28T07:36:00.907Z,40
2024-02-28T07:37:01.061Z,40
2024-02-28T07:38:01.156Z,40
2024-02-28T07:39:01.225Z,40
2024-02-28T07:40:01.670Z,40
2024-02-28T07:41:00.923Z,40
2024-02-28T07:42:00.993Z,40
2024-02-28T07:43:01.138Z,40
2024-02-28T07:44:01.238Z,40
2024-02-28T07:45:01.466Z,40
2024-02-28T07:46:01.705Z,40
2024-02-28T07:47:01.861Z,40
2024-02-28T07:48:00.939Z,40
2024-02-28T07:49:01.105Z,40
2024-02-28T07:50:01.275Z,40
2024-02-28T07:51:01.356Z,40
2024-02-28T07:52:01.505Z,40
2024-02-28T07:53:01.643Z,40
2024-02-28T07:54:01.765Z,40
2024-02-28T07:55:00.939Z,40
2024-02-28T07:56:01.059Z,40
2024-02-28T07:57:01.156Z,40
2024-02-28T07:58:01.282Z,40
2024-02-28T07:59:01.782Z,40
2024-02-28T08:00:00.838Z,40
2024-02-28T08:01:01.082Z,40
2024-02-28T08:02:01.471Z,40
2024-02-28T08:03:01.925Z,40
2024-02-28T08:04:01.347Z,40
2024-02-28T08:05:01.534Z,40
2024-02-28T08:06:01.657Z,40
2024-02-28T08:07:01.911Z,40
2024-02-28T08:08:01.068Z,40
2024-02-28T08:09:01.229Z,40
2024-02-28T08:10:01.340Z,40
2024-02-28T08:11:01.706Z,40
2024-02-28T08:12:01.821Z,40
2024-02-28T08:13:01.035Z,40
2024-02-28T08:14:01.265Z,40
2024-02-28T08:15:01.398Z,40
2024-02-28T08:16:01.714Z,40
2024-02-28T08:17:00.858Z,41
2024-02-28T08:18:00.955Z,41
2024-02-28T08:19:01.722Z,41
2024-02-28T08:20:01.046Z,40
2024-02-28T08:21:01.181Z,40
2024-02-28T08:22:01.302Z,41
2024-02-28T08:23:01.607Z,40
2024-02-28T08:24:01.692Z,40
2024-02-28T08:25:00.989Z,41
2024-02-28T08:26:01.121Z,41
2024-02-28T08:27:01.161Z,41
2024-02-28T08:28:01.371Z,41
2024-02-28T08:29:01.614Z,41
2024-02-28T08:30:01.698Z,41
2024-02-28T08:31:01.908Z,41
2024-02-28T08:32:01.038Z,41
2024-02-28T08:33:01.133Z,41
2024-02-28T08:34:02.446Z,41
2024-02-28T08:35:01.503Z,41
2024-02-28T08:36:01.554Z,41
2024-02-28T08:37:00.920Z,41
2024-02-28T08:38:01.049Z,41
2024-02-28T08:39:01.350Z,41
2024-02-28T08:40:02.088Z,42
2024-02-28T08:41:01.499Z,41
2024-02-28T08:42:01.603Z,41
2024-02-28T08:43:01.005Z,42
2024-02-28T08:44:01.137Z,42
2024-02-28T08:45:01.309Z,41
2024-02-28T08:46:01.533Z,41
2024-02-28T08:47:01.890Z,42
2024-02-28T08:48:00.985Z,42
2024-02-28T08:49:01.452Z,42
2024-02-28T08:50:01.783Z,42
2024-02-28T08:51:00.951Z,42
2024-02-28T08:52:01.173Z,42
2024-02-28T08:53:01.311Z,42
2024-02-28T08:54:01.480Z,42
2024-02-28T08:55:01.660Z,42
2024-02-28T08:56:01.114Z,42
2024-02-28T08:57:04.196Z,42
2024-02-28T08:58:01.757Z,43
2024-02-28T08:59:01.005Z,43
2024-02-28T09:00:01.193Z,43
2024-02-28T09:01:01.595Z,43
2024-02-28T09:02:01.818Z,43
2024-02-28T09:03:00.945Z,43
2024-02-28T09:04:01.034Z,43
2024-02-28T09:05:01.196Z,43
2024-02-28T09:06:01.334Z,43
2024-02-28T09:07:01.521Z,43
2024-02-28T09:08:01.853Z,43
2024-02-28T09:09:00.972Z,43
2024-02-28T09:10:01.343Z,43
2024-02-28T09:11:01.637Z,43
2024-02-28T09:12:01.809Z,43
2024-02-28T09:13:01.069Z,43
2024-02-28T09:14:01.492Z,43
2024-02-28T09:15:01.586Z,43
2024-02-28T09:16:01.980Z,43
2024-02-28T09:17:01.226Z,43
2024-02-28T09:18:01.456Z,43
2024-02-28T09:19:01.832Z,43
2024-02-28T09:20:00.971Z,43
2024-02-28T09:21:01.117Z,43
2024-02-28T09:22:01.273Z,43
2024-02-28T09:23:01.506Z,43
2024-02-28T09:24:01.623Z,43
2024-02-28T09:25:01.374Z,43
2024-02-28T09:26:01.527Z,43
2024-02-28T09:27:01.604Z,43
2024-02-28T09:28:01.836Z,43
2024-02-28T09:29:01.125Z,43
2024-02-28T09:30:01.227Z,44
2024-02-28T09:31:03.988Z,43
2024-02-28T09:32:01.324Z,44
2024-02-28T09:33:01.464Z,44
2024-02-28T09:34:01.641Z,43
2024-02-28T09:35:00.825Z,43
2024-02-28T09:36:00.904Z,44
2024-02-28T09:37:01.252Z,44
2024-02-28T09:38:01.473Z,44
2024-02-28T09:39:01.624Z,44
2024-02-28T09:40:01.896Z,44
2024-02-28T09:41:01.108Z,44
2024-02-28T09:42:01.182Z,44
2024-02-28T09:43:01.457Z,44
2024-02-28T09:44:01.788Z,44
2024-02-28T09:45:01.127Z,44
2024-02-28T09:46:01.490Z,44
2024-02-28T09:47:01.680Z,44
2024-02-28T09:48:00.932Z,44
2024-02-28T09:49:01.230Z,44
2024-02-28T09:50:01.500Z,44
2024-02-28T09:51:01.687Z,44
2024-02-28T09:52:01.035Z,44
2024-02-28T09:53:09.719Z,44
2024-02-28T09:55:01.037Z,44
2024-02-28T09:56:01.644Z,44
2024-02-28T09:57:01.390Z,44
2024-02-28T09:58:01.716Z,44
2024-02-28T09:59:00.847Z,44
2024-02-28T10:00:00.985Z,44
2024-02-28T10:01:01.250Z,44
2024-02-28T10:02:01.380Z,44
2024-02-28T10:03:01.565Z,44
2024-02-28T10:04:02.046Z,44
2024-02-28T10:05:01.829Z,44
2024-02-28T10:06:04.451Z,44
2024-02-28T10:07:01.006Z,44
2024-02-28T10:08:01.228Z,44
2024-02-28T10:09:01.294Z,44
2024-02-28T10:10:01.492Z,44
2024-02-28T10:11:01.680Z,44
2024-02-28T10:12:01.751Z,44
2024-02-28T10:13:00.891Z,44
2024-02-28T10:14:01.239Z,44
2024-02-28T10:15:01.286Z,45
2024-02-28T10:16:01.366Z,45
2024-02-28T10:17:01.607Z,45
2024-02-28T10:18:01.721Z,45
2024-02-28T10:19:01.860Z,45
2024-02-28T10:20:00.928Z,45
2024-02-28T10:21:01.037Z,45
2024-02-28T10:22:01.427Z,45
2024-02-28T10:23:01.663Z,45
2024-02-28T10:24:05.159Z,45
2024-02-28T10:25:01.733Z,45
2024-02-28T10:26:00.890Z,45
2024-02-28T10:27:00.934Z,46
2024-02-28T10:28:01.049Z,46
2024-02-28T10:29:01.219Z,46
2024-02-28T10:30:01.291Z,46
2024-02-28T10:31:01.581Z,47
2024-02-28T10:32:01.763Z,47
2024-02-28T10:33:01.922Z,47
2024-02-28T10:34:01.067Z,47
2024-02-28T10:35:01.161Z,46
2024-02-28T10:36:01.185Z,48
2024-02-28T10:37:01.578Z,48
2024-02-28T10:38:01.790Z,48
2024-02-28T10:39:00.972Z,48
2024-02-28T10:40:01.247Z,47
2024-02-28T10:41:01.542Z,48
2024-02-28T10:42:01.808Z,49
2024-02-28T10:43:01.021Z,49
2024-02-28T10:44:01.208Z,49
2024-02-28T10:45:10.966Z,49
2024-02-28T10:47:01.654Z,49
2024-02-28T10:48:01.858Z,49
2024-02-28T10:49:01.082Z,49
2024-02-28T10:50:01.242Z,49
2024-02-28T10:51:01.401Z,49
2024-02-28T10:52:01.781Z,48
2024-02-28T10:53:00.988Z,49
2024-02-28T10:54:01.124Z,49
2024-02-28T10:55:01.261Z,49
2024-02-28T10:56:01.388Z,49
2024-02-28T10:57:01.582Z,49
2024-02-28T10:58:01.706Z,49
2024-02-28T10:59:00.870Z,49
2024-02-28T11:00:00.983Z,49
2024-02-28T11:01:01.137Z,49
2024-02-28T11:02:01.207Z,49
2024-02-28T11:03:01.297Z,49
2024-02-28T11:04:01.405Z,50
2024-02-28T11:05:01.611Z,50
2024-02-28T11:06:01.734Z,50
2024-02-28T11:07:00.870Z,50
2024-02-28T11:08:00.998Z,50
2024-02-28T11:09:01.253Z,50
2024-02-28T11:10:01.432Z,51
2024-02-28T11:11:01.642Z,51
2024-02-28T11:12:01.058Z,51
2024-02-28T11:13:01.324Z,51
2024-02-28T11:14:01.477Z,51
2024-02-28T11:15:01.615Z,51
2024-02-28T11:16:01.819Z,51
2024-02-28T11:17:01.152Z,50
2024-02-28T11:18:01.315Z,50
2024-02-28T11:19:01.487Z,50
2024-02-28T11:20:01.667Z,50
2024-02-28T11:21:00.827Z,50
2024-02-28T11:22:01.176Z,50
2024-02-28T11:23:01.302Z,50
2024-02-28T11:24:01.457Z,50
2024-02-28T11:25:01.741Z,50
2024-02-28T11:26:00.979Z,50
2024-02-28T11:27:01.223Z,50
2024-02-28T11:28:01.460Z,50
2024-02-28T11:29:01.585Z,50
2024-02-28T11:30:01.692Z,50
2024-02-28T11:31:02.021Z,50
2024-02-28T11:32:01.198Z,50
2024-02-28T11:33:05.862Z,50
2024-02-28T11:34:01.853Z,50
2024-02-28T11:35:01.020Z,50
2024-02-28T11:36:01.208Z,50
2024-02-28T11:37:01.541Z,50
2024-02-28T11:38:01.715Z,52
2024-02-28T11:39:01.097Z,51
2024-02-28T11:40:01.396Z,51
2024-02-28T11:41:01.586Z,51
2024-02-28T11:42:01.754Z,51
2024-02-28T11:43:01.130Z,51
2024-02-28T11:44:01.342Z,51
2024-02-28T11:45:02.337Z,51
2024-02-28T11:46:01.725Z,51
2024-02-28T11:47:00.895Z,51
2024-02-28T11:48:01.059Z,51
2024-02-28T11:49:01.378Z,51
2024-02-28T11:50:01.662Z,50
2024-02-28T11:51:01.841Z,50
2024-02-28T11:52:01.030Z,50
2024-02-28T11:53:01.248Z,50
2024-02-28T11:54:01.379Z,50
2024-02-28T11:55:01.815Z,50
2024-02-28T11:56:01.056Z,50
2024-02-28T11:57:01.214Z,50
2024-02-28T11:58:01.386Z,50
2024-02-28T11:59:01.725Z,50
2024-02-28T12:00:00.871Z,51
2024-02-28T12:01:01.130Z,50
2024-02-28T12:02:01.566Z,51
2024-02-28T12:03:01.730Z,51
2024-02-28T12:04:00.996Z,51
2024-02-28T12:05:01.148Z,51
2024-02-28T12:06:01.291Z,51
2024-02-28T12:07:01.547Z,51
2024-02-28T12:08:01.764Z,51
2024-02-28T12:09:00.909Z,51
2024-02-28T12:10:01.095Z,51
2024-02-28T12:11:01.350Z,51
2024-02-28T12:12:01.568Z,51
2024-02-28T12:13:01.734Z,51
2024-02-28T12:14:00.836Z,51
2024-02-28T12:15:01.236Z,51
2024-02-28T12:16:01.461Z,51
2024-02-28T12:17:01.605Z,51
2024-02-28T12:18:01.745Z,51
2024-02-28T12:19:00.985Z,51
2024-02-28T12:20:01.206Z,51
2024-02-28T12:21:01.524Z,51
2024-02-28T12:22:01.703Z,51
2024-02-28T12:23:00.866Z,51
2024-02-28T12:24:01.211Z,51
2024-02-28T12:25:01.332Z,51
2024-02-28T12:26:01.703Z,51
2024-02-28T12:27:00.807Z,51
2024-02-28T12:28:01.070Z,51
2024-02-28T12:29:01.220Z,51
2024-02-28T12:30:01.413Z,51
2024-02-28T12:31:01.566Z,52
2024-02-28T12:32:01.666Z,52
2024-02-28T12:33:01.790Z,52
2024-02-28T12:34:01.081Z,52
2024-02-28T12:35:01.349Z,52
2024-02-28T12:36:01.478Z,52
2024-02-28T12:37:01.646Z,52
2024-02-28T12:38:01.016Z,52
2024-02-28T12:39:01.107Z,51
2024-02-28T12:40:01.341Z,51
2024-02-28T12:41:01.503Z,52
2024-02-28T12:42:01.578Z,51
2024-02-28T12:43:00.916Z,51
2024-02-28T12:44:01.115Z,51
2024-02-28T12:45:01.226Z,51
2024-02-28T12:46:01.555Z,51
2024-02-28T12:47:01.792Z,51
2024-02-28T12:48:00.933Z,51
2024-02-28T12:49:01.050Z,51
2024-02-28T12:50:01.173Z,51
2024-02-28T12:51:01.315Z,51
2024-02-28T12:52:01.569Z,51
2024-02-28T12:53:01.749Z,51
2024-02-28T12:54:00.981Z,51
2024-02-28T12:55:01.170Z,51
2024-02-28T12:56:01.361Z,52
2024-02-28T12:57:01.489Z,52
2024-02-28T12:58:01.641Z,52
2024-02-28T12:59:00.992Z,52
2024-02-28T13:00:01.239Z,52
2024-02-28T13:01:01.510Z,52
2024-02-28T13:02:01.732Z,52
2024-02-28T13:03:01.796Z,52
2024-02-28T13:04:01.146Z,52
2024-02-28T13:05:01.432Z,52
2024-02-28T13:06:01.572Z,52
2024-02-28T13:07:01.788Z,52
2024-02-28T13:08:01.012Z,52
2024-02-28T13:09:01.277Z,52
2024-02-28T13:10:01.689Z,52
2024-02-28T13:11:00.965Z,52
2024-02-28T13:12:01.263Z,52
2024-02-28T13:13:01.469Z,52
2024-02-28T13:14:01.630Z,52
2024-02-28T13:15:01.781Z,52
2024-02-28T13:16:00.925Z,52
2024-02-28T13:17:04.503Z,52
2024-02-28T13:18:01.002Z,52
2024-02-28T13:19:01.170Z,52
2024-02-28T13:20:01.305Z,53
2024-02-28T13:21:01.695Z,53
2024-02-28T13:22:01.825Z,53
2024-02-28T13:23:03.516Z,53
2024-02-28T13:24:01.496Z,53
2024-02-28T13:25:01.600Z,52
2024-02-28T13:26:00.983Z,52
2024-02-28T13:27:01.110Z,52
2024-02-28T13:28:01.277Z,53
2024-02-28T13:29:01.513Z,53
2024-02-28T13:30:01.574Z,53
2024-02-28T13:31:02.736Z,52
2024-02-28T13:32:00.909Z,53
2024-02-28T13:33:01.102Z,53
2024-02-28T13:34:01.317Z,53
2024-02-28T13:35:01.542Z,53
2024-02-28T13:36:01.698Z,53
2024-02-28T13:37:01.807Z,53
2024-02-28T13:38:01.496Z,53
2024-02-28T13:39:01.103Z,53
2024-02-28T13:40:01.563Z,53
2024-02-28T13:41:00.806Z,53
2024-02-28T13:42:01.032Z,53
2024-02-28T13:43:01.408Z,53
2024-02-28T13:45:01.868Z,53
2024-02-28T13:46:01.906Z,53
2024-02-28T13:47:01.199Z,53
2024-02-28T13:48:01.490Z,53
2024-02-28T13:49:01.833Z,53
2024-02-28T13:50:00.972Z,53
2024-02-28T13:51:01.202Z,53
2024-02-28T13:52:01.510Z,53
2024-02-28T13:53:01.280Z,53
2024-02-28T13:54:02.470Z,53
2024-02-28T13:55:01.111Z,53
2024-02-28T13:56:01.408Z,53
2024-02-28T13:57:01.488Z,53
2024-02-28T13:58:01.812Z,53
2024-02-28T13:59:01.117Z,53
2024-02-28T14:00:01.797Z,53
2024-02-28T14:02:01.679Z,53
2024-02-28T14:03:00.864Z,53
2024-02-28T14:04:01.254Z,53
2024-02-28T14:05:01.004Z,53
2024-02-28T14:06:00.856Z,53
2024-02-28T14:07:01.431Z,53
2024-02-28T14:09:01.316Z,53
2024-02-28T14:10:01.248Z,53
2024-02-28T14:11:01.573Z,53
2024-02-28T14:12:01.609Z,53
2024-02-28T14:13:01.805Z,53
2024-02-28T14:15:00.941Z,53
2024-02-28T14:16:01.665Z,53
2024-02-28T14:17:01.106Z,53
2024-02-28T14:18:01.767Z,53
2024-02-28T14:19:01.445Z,53
2024-02-28T14:20:01.052Z,53
2024-02-28T14:21:01.238Z,53
2024-02-28T14:22:01.367Z,53
2024-02-28T14:23:01.689Z,53
2024-02-28T14:24:01.792Z,53
2024-02-28T14:25:00.904Z,53
2024-02-28T14:26:01.153Z,53
2024-02-28T14:27:01.554Z,53
2024-02-28T14:28:01.754Z,53
2024-02-28T14:29:01.829Z,53
2024-02-28T14:30:00.981Z,53
2024-02-28T14:31:01.430Z,53
2024-02-28T14:32:01.657Z,53
2024-02-28T14:33:00.913Z,52
2024-02-28T14:34:01.061Z,52
2024-02-28T14:35:01.257Z,52
2024-02-28T14:36:01.719Z,52
2024-02-28T14:37:01.453Z,52
2024-02-28T14:38:01.549Z,52
2024-02-28T14:39:01.723Z,53
2024-02-28T14:40:00.889Z,52
2024-02-28T14:41:01.154Z,52
2024-02-28T14:42:01.456Z,53
2024-02-28T14:43:01.618Z,52
2024-02-28T14:44:01.869Z,52
2024-02-28T14:45:01.319Z,52
2024-02-28T14:46:01.442Z,52
2024-02-28T14:47:01.663Z,52
2024-02-28T14:48:01.797Z,52
2024-02-28T14:49:01.167Z,52
2024-02-28T14:50:01.279Z,52
2024-02-28T14:51:01.334Z,52
2024-02-28T14:52:01.408Z,52
2024-02-28T14:53:01.526Z,52
2024-02-28T14:54:01.594Z,52
2024-02-28T14:55:01.821Z,52
2024-02-28T14:56:01.524Z,52
2024-02-28T14:57:01.662Z,52
2024-02-28T14:58:01.826Z,52
2024-02-28T14:59:01.447Z,52
2024-02-28T15:00:01.576Z,52
2024-02-28T15:01:01.891Z,52
2024-02-28T15:02:01.182Z,52
2024-02-28T15:03:01.316Z,52
2024-02-28T15:04:01.390Z,52
2024-02-28T15:05:01.479Z,52
2024-02-28T15:06:01.534Z,52
2024-02-28T15:07:01.656Z,52
2024-02-28T15:08:00.825Z,52
2024-02-28T15:09:00.887Z,52
2024-02-28T15:10:01.295Z,52
2024-02-28T15:11:01.719Z,52
2024-02-28T15:12:01.173Z,53
2024-02-28T15:13:01.525Z,53
2024-02-28T15:14:01.389Z,53
2024-02-28T15:15:01.509Z,53
2024-02-28T15:16:01.909Z,53
2024-02-28T15:17:01.694Z,53
2024-02-28T15:18:01.857Z,53
2024-02-28T15:19:01.380Z,53
2024-02-28T15:20:01.583Z,53
2024-02-28T15:21:02.830Z,53
2024-02-28T15:22:01.840Z,53
2024-02-28T15:23:01.702Z,53
2024-02-28T15:24:01.705Z,53
2024-02-28T15:25:01.652Z,53
2024-02-28T15:26:01.383Z,53
2024-02-28T15:27:01.603Z,53
2024-02-28T15:28:01.512Z,53
2024-02-28T15:29:01.224Z,53
2024-02-28T15:30:01.282Z,53
2024-02-28T15:31:01.443Z,53
2024-02-28T15:32:01.118Z,53
2024-02-28T15:33:01.765Z,53
2024-02-28T15:34:01.235Z,53
2024-02-28T15:35:01.485Z,53
2024-02-28T15:36:01.742Z,53
2024-02-28T15:37:00.952Z,53
2024-02-28T15:38:01.156Z,53
2024-02-28T15:39:01.286Z,53
2024-02-28T15:40:01.457Z,54
2024-02-28T15:41:01.558Z,54
2024-02-28T15:42:01.816Z,54
2024-02-28T15:43:01.321Z,54
2024-02-28T15:44:01.463Z,54
2024-02-28T15:45:01.629Z,54
2024-02-28T15:46:01.805Z,54
2024-02-28T15:47:01.781Z,54
2024-02-28T15:48:01.625Z,54
2024-02-28T15:49:01.769Z,54
2024-02-28T15:50:01.321Z,54
2024-02-28T15:51:01.560Z,54
2024-02-28T15:52:01.874Z,54
2024-02-28T15:53:01.828Z,54
2024-02-28T15:54:01.372Z,54
2024-02-28T15:55:01.611Z,54
2024-02-28T15:56:01.674Z,54
2024-02-28T15:57:01.817Z,54
2024-02-28T15:58:01.574Z,54
2024-02-28T15:59:01.081Z,54
2024-02-28T16:00:01.185Z,54
2024-02-28T16:01:01.567Z,54
2024-02-28T16:02:01.749Z,54
2024-02-28T16:03:01.251Z,54
2024-02-28T16:04:01.394Z,54
2024-02-28T16:05:01.496Z,54
2024-02-28T16:06:01.601Z,54
2024-02-28T16:07:01.653Z,54
2024-02-28T16:08:00.903Z,54
2024-02-28T16:09:00.986Z,54
2024-02-28T16:10:01.369Z,54
2024-02-28T16:11:01.763Z,54
2024-02-28T16:12:00.999Z,54
2024-02-28T16:13:01.256Z,54
2024-02-28T16:14:01.525Z,54
2024-02-28T16:15:01.589Z,54
2024-02-28T16:16:00.899Z,54
2024-02-28T16:17:01.019Z,54
2024-02-28T16:18:01.305Z,54
2024-02-28T16:19:08.975Z,54
2024-02-28T16:21:01.702Z,54
2024-02-28T16:22:01.523Z,54
2024-02-28T16:23:02.666Z,54
2024-02-28T16:24:01.203Z,54
2024-02-28T16:25:01.269Z,54
2024-02-28T16:26:01.185Z,54
2024-02-28T16:27:01.245Z,54
2024-02-28T16:28:01.437Z,54
2024-02-28T16:29:01.514Z,54
2024-02-28T16:30:01.590Z,54
2024-02-28T16:31:01.658Z,53
2024-02-28T16:32:01.849Z,53
2024-02-28T16:33:00.946Z,53
2024-02-28T16:34:01.077Z,54
2024-02-28T16:35:01.301Z,54
2024-02-28T16:36:01.636Z,53
2024-02-28T16:37:01.389Z,53
2024-02-28T16:38:01.606Z,54
2024-02-28T16:39:01.205Z,54
2024-02-28T16:40:01.681Z,54
2024-02-28T16:41:01.118Z,54
2024-02-28T16:42:01.281Z,54
2024-02-28T16:43:01.445Z,54
2024-02-28T16:44:01.605Z,54
2024-02-28T16:45:01.656Z,54
2024-02-28T16:46:01.720Z,54
2024-02-28T16:47:01.088Z,54
2024-02-28T16:48:01.211Z,54
2024-02-28T16:49:01.545Z,54
2024-02-28T16:50:01.147Z,54
2024-02-28T16:51:01.417Z,54
2024-02-28T16:52:01.555Z,54
2024-02-28T16:53:01.688Z,54
2024-02-28T16:54:01.638Z,54
2024-02-28T16:55:01.163Z,54
2024-02-28T16:56:01.447Z,54
2024-02-28T16:57:01.613Z,54
2024-02-28T16:58:01.755Z,54
2024-02-28T17:10:01.448Z,54
2024-02-28T17:12:01.332Z,54
2024-02-28T17:14:01.539Z,54
2024-02-28T17:16:01.880Z,54
2024-02-28T23:19:01.110Z,53
2024-02-28T23:20:00.926Z,53
2024-02-28T23:21:01.524Z,53
2024-02-28T23:22:01.224Z,53
2024-02-28T23:23:01.342Z,53
2024-02-28T23:24:01.686Z,53
2024-02-28T23:25:01.017Z,52
2024-02-28T23:26:03.444Z,52
2024-02-28T23:27:00.830Z,52
2024-02-28T23:28:01.065Z,52
2024-02-28T23:29:01.149Z,52
2024-02-28T23:30:01.354Z,53
2024-02-28T23:31:01.651Z,52
2024-02-28T23:32:01.353Z,52
2024-02-28T23:33:02.396Z,52
2024-02-28T23:34:01.497Z,52
2024-02-28T23:35:01.589Z,52
2024-02-28T23:36:01.789Z,52
2024-02-28T23:37:01.793Z,52
2024-02-28T23:38:01.251Z,52
2024-02-28T23:39:01.258Z,52
2024-02-28T23:40:01.220Z,52
2024-02-28T23:41:00.953Z,52
2024-02-28T23:42:01.196Z,52
2024-02-28T23:43:01.469Z,52
2024-02-28T23:44:01.368Z,52
2024-02-28T23:45:01.160Z,52
2024-02-28T23:46:01.082Z,52
2024-02-28T23:47:01.505Z,52
2024-02-28T23:48:01.610Z,52
2024-02-28T23:49:01.829Z,52
2024-02-28T23:50:01.715Z,52
2024-02-28T23:51:01.447Z,52
2024-02-28T23:52:01.096Z,52
2024-02-28T23:53:01.024Z,52
2024-02-28T23:54:01.227Z,52
2024-02-28T23:55:01.478Z,52
2024-02-28T23:56:01.548Z,52
2024-02-28T23:57:01.508Z,52
2024-02-28T23:58:01.562Z,52
2024-02-28T23:59:01.012Z,51
